VVCT

Details ICAO VVCT (VCA)
Name CAN THO
Region Vietnam
Timezone Asia/Ho_Chi_Minh (UTC+7.0)
Plans Departing 10
Arriving 19
Stats Elevation 9 ft / 3 m (AMSL)
Location 10.085121° 105.711922°
Runways 1
Magnetic Variation 0.393° W
Sunrise 2018-05-23 22:36:21 UTC / 2018-05-24 05:36:21 Local
Sunset 2018-05-24 11:14:26 UTC / 2018-05-24 18:14:26 Local
Advertisement - Login to hide

Runways

ID Width Length Bearing (true) Bearing (mag) Surface Threshold Offset Overrun Length
06 100 ft / 30 m 7,891 ft / 2,405 m 59.86° 60.25° Asphalt 0 ft / 0 m 505 ft / 154 m
24 100 ft / 30 m 7,891 ft / 2,405 m 239.86° 240.25° Asphalt 0 ft / 0 m 460 ft / 140 m

Map

Weather


0- 5 10 15 20 25 30 35+ Temperature / ° C

Clouds and Precipitation
Forecast for 2018-05-24 12:00 UTC. Updated an hour ago

Ground ~20,000 ft ~40,000 ft Winds

METAR

Not found

TAF

TAF VVCT 240500Z 2406/2506 09008KT 9999 SCT017 BKN040 TEMPO 2407/2412 3000 TSRA SCT015 FEW017CB BKN040
Warning: Do not use this data for real-world aviation or navigation. No guarantee of current accuracy is given.